Time;durP1;ratioP1;P1;durP2;ratioP2;P2;SDS_P1;SDS_P2;PMS_P1;PMS_P2;Temp;Humidity;BMP_temperature;BMP_pressure;BME280_temperature;BME280_humidity;BME280_pressure;Samples;Min_cycle;Max_cycle;Signal;HPM_P1;HPM_P2
2022/05/28 00:02:23;;;;;;;0.52;0.30;;;;;;;28.79;20.69;97927.91;5053826;28;20025;-77
2022/05/28 00:04:50;;;;;;;3.75;0.40;;;;;;;28.79;20.62;97925.84;5050652;28;20041;-78
2022/05/28 00:07:16;;;;;;;0.43;0.40;;;;;;;28.77;21.16;97924.75;5048245;28;20086;-78
2022/05/28 00:09:43;;;;;;;0.30;0.30;;;;;;;28.83;20.96;97925.69;5049134;28;20028;-78
2022/05/28 00:12:09;;;;;;;16.10;4.13;;;;;;;28.87;21.15;97924.28;5050353;28;20075;-77
2022/05/28 00:14:35;;;;;;;0.30;0.30;;;;;;;28.72;21.04;97923.34;5044939;28;20036;-77
2022/05/28 00:17:01;;;;;;;1.00;0.28;;;;;;;28.83;21.00;97918.00;5046312;28;20056;-78
2022/05/28 00:19:27;;;;;;;0.30;0.30;;;;;;;28.62;20.88;97919.72;5043315;28;20037;-78
2022/05/28 00:21:53;;;;;;;0.52;0.30;;;;;;;28.35;21.62;97919.66;5044543;28;20485;-78
2022/05/28 00:24:19;;;;;;;0.20;0.20;;;;;;;28.32;21.08;97914.13;5049096;28;20512;-78
2022/05/28 00:26:45;;;;;;;0.10;0.10;;;;;;;28.34;21.24;97908.81;5050250;28;20487;-78
2022/05/28 00:29:11;;;;;;;0.22;0.22;;;;;;;28.29;21.07;97926.34;5049935;28;20163;-78
2022/05/28 00:31:38;;;;;;;0.57;0.30;;;;;;;28.30;21.17;97919.47;5048625;28;20068;-78
2022/05/28 00:34:04;;;;;;;0.28;0.28;;;;;;;28.38;20.84;97920.75;5045638;28;20065;-78
2022/05/28 00:36:31;;;;;;;1.00;0.30;;;;;;;28.46;20.86;97907.88;5050873;28;20032;-78
2022/05/28 00:38:57;;;;;;;1.15;0.32;;;;;;;28.61;20.88;97904.00;5051325;28;20082;-78
2022/05/28 00:41:23;;;;;;;2.00;0.40;;;;;;;28.53;20.56;97887.81;5050174;28;20087;-77
2022/05/28 00:43:49;;;;;;;0.22;0.20;;;;;;;27.98;20.85;97882.00;5050344;28;20033;-77
2022/05/28 00:46:23;;;;;;;0.30;0.30;;;;;;;27.91;20.96;97887.94;5049513;28;20120;-77
2022/05/28 00:48:57;;;;;;;0.40;0.30;;;;;;;27.98;21.02;97873.53;5050098;28;20114;-77
2022/05/28 00:51:28;;;;;;;0.30;0.30;;;;;;;27.94;21.21;97878.56;5043948;28;20029;-77
2022/05/28 00:53:59;;;;;;;0.68;0.30;;;;;;;28.27;20.60;97880.84;5045232;28;20051;-77
2022/05/28 00:56:27;;;;;;;0.47;0.40;;;;;;;28.08;21.26;97886.47;5047452;28;20025;-77
2022/05/28 00:58:54;;;;;;;0.22;0.22;;;;;;;28.23;20.71;97889.50;5047881;28;20029;-77
2022/05/28 01:01:26;;;;;;;1.27;0.65;;;;;;;28.41;20.91;97894.38;5025913;28;20381;-77
2022/05/28 01:04:22;;;;;;;1.95;0.80;;;;;;;28.63;20.61;97898.69;5042207;28;20033;-76
2022/05/28 01:06:59;;;;;;;1.40;0.77;;;;;;;28.87;20.61;97893.19;5042663;28;20392;-76
2022/05/28 01:09:25;;;;;;;0.77;0.75;;;;;;;28.88;20.35;97891.16;5044864;28;20036;-77
2022/05/28 01:12:02;;;;;;;2.70;0.60;;;;;;;28.65;20.67;97884.88;5049915;28;20029;-77
2022/05/28 01:14:44;;;;;;;0.50;0.50;;;;;;;28.55;20.87;97886.09;5045340;28;20029;-77
2022/05/28 01:17:16;;;;;;;0.70;0.65;;;;;;;28.57;20.91;97886.41;5043531;28;20095;-77
2022/05/28 01:20:21;;;;;;;0.60;0.40;;;;;;;28.51;20.83;97890.31;5050174;28;20033;-77
2022/05/28 01:23:12;;;;;;;0.90;0.50;;;;;;;28.46;21.01;97888.13;4969465;28;20034;-77
2022/05/28 01:26:20;;;;;;;0.90;0.40;;;;;;;28.63;20.78;97889.44;4968044;28;20304;-77
2022/05/28 01:28:52;;;;;;;0.55;0.30;;;;;;;28.67;20.77;97890.84;5040257;28;20068;-77
2022/05/28 01:31:21;;;;;;;0.40;0.40;;;;;;;28.51;20.98;97881.84;5051578;28;20056;-77
2022/05/28 01:33:49;;;;;;;0.75;0.65;;;;;;;28.69;20.62;97874.19;5053717;28;20369;-77
2022/05/28 01:36:18;;;;;;;3.38;0.43;;;;;;;28.43;20.76;97878.53;5051792;28;20108;-77
2022/05/28 01:38:45;;;;;;;0.60;0.55;;;;;;;28.41;20.97;97875.41;5051558;28;20039;-77
2022/05/28 01:41:13;;;;;;;1.48;0.70;;;;;;;28.56;20.68;97873.56;5030334;28;20032;-77
2022/05/28 01:43:45;;;;;;;1.95;0.82;;;;;;;28.64;21.10;97874.81;5052205;28;20489;-77
2022/05/28 01:46:14;;;;;;;1.65;0.85;;;;;;;28.85;20.65;97869.47;5051515;28;20033;-77
2022/05/28 01:48:43;;;;;;;1.08;0.80;;;;;;;29.04;20.44;97879.53;5049854;28;20064;-77
2022/05/28 01:51:13;;;;;;;1.40;0.77;;;;;;;29.04;20.30;97883.13;5053414;28;20079;-77
2022/05/28 01:56:27;;;;;;;1.27;0.75;;;;;;;29.06;20.49;97882.66;5053001;28;20083;-77
2022/05/28 01:58:53;;;;;;;0.60;0.52;;;;;;;28.83;20.65;97881.25;5050052;28;20067;-77
2022/05/28 02:01:19;;;;;;;1.73;1.10;;;;;;;28.69;20.76;97873.41;5046992;28;20072;-77
2022/05/28 02:03:49;;;;;;;3.50;0.55;;;;;;;28.70;20.61;97869.34;5050929;28;20041;-77
2022/05/28 02:06:15;;;;;;;0.50;0.50;;;;;;;28.70;20.57;97866.53;5047672;28;20032;-77
2022/05/28 02:08:44;;;;;;;2.92;0.60;;;;;;;28.75;20.74;97869.47;5049879;28;22124;-77
2022/05/28 02:11:20;;;;;;;0.98;0.60;;;;;;;28.73;20.44;97862.72;5052273;28;20029;-77
2022/05/28 02:14:09;;;;;;;0.80;0.60;;;;;;;28.55;20.96;97866.31;5048580;28;20048;-77
2022/05/28 02:17:01;;;;;;;2.05;0.75;;;;;;;28.33;20.74;97862.06;5044690;28;20451;-77
2022/05/28 02:19:51;;;;;;;0.63;0.50;;;;;;;28.32;20.57;97866.91;5049079;28;20033;-77
2022/05/28 02:22:31;;;;;;;1.42;0.50;;;;;;;28.37;20.20;97863.47;5049336;28;20040;-77
2022/05/28 02:25:08;;;;;;;0.70;0.50;;;;;;;28.07;20.41;97867.19;5049134;28;20029;-77
2022/05/28 02:27:37;;;;;;;1.33;0.82;;;;;;;28.21;20.52;97860.94;5046157;28;20401;-77
2022/05/28 02:30:04;;;;;;;0.52;0.52;;;;;;;28.24;20.53;97864.88;5045997;28;20393;-77
2022/05/28 02:32:30;;;;;;;0.75;0.60;;;;;;;28.14;20.45;97868.91;5047200;28;20046;-77
2022/05/28 02:34:56;;;;;;;1.33;1.00;;;;;;;28.22;20.66;97868.16;5050692;28;20423;-77
2022/05/28 02:37:26;;;;;;;0.75;0.75;;;;;;;28.07;20.40;97858.72;5048359;28;20480;-76
2022/05/28 02:39:52;;;;;;;1.10;0.65;;;;;;;27.97;20.80;97865.53;5050872;28;20065;-77
2022/05/28 02:42:19;;;;;;;1.55;0.70;;;;;;;27.95;20.67;97863.19;5052666;28;20029;-77
2022/05/28 02:44:45;;;;;;;0.68;0.60;;;;;;;28.15;20.37;97857.16;5048481;28;20038;-77
2022/05/28 02:47:11;;;;;;;0.88;0.57;;;;;;;27.79;20.35;97862.66;5046902;28;20033;-77
2022/05/28 02:49:38;;;;;;;1.65;0.60;;;;;;;27.58;21.32;97869.16;5049325;28;20037;-77
2022/05/28 02:52:06;;;;;;;1.30;0.70;;;;;;;27.11;21.81;97867.31;5032058;28;20423;-77
2022/05/28 02:54:33;;;;;;;1.55;0.73;;;;;;;26.92;22.50;97862.00;5046220;28;20029;-77
2022/05/28 02:56:59;;;;;;;1.25;0.70;;;;;;;27.04;22.28;97869.59;5051538;28;20032;-77
2022/05/28 02:59:26;;;;;;;0.82;0.63;;;;;;;27.46;21.56;97855.94;5048245;28;20033;-77
2022/05/28 03:01:52;;;;;;;1.88;0.93;;;;;;;27.94;21.14;97863.66;5030692;28;20060;-77
2022/05/28 03:04:19;;;;;;;0.82;0.60;;;;;;;28.08;20.57;97852.59;5048153;28;20044;-77
2022/05/28 03:06:45;;;;;;;1.20;0.60;;;;;;;27.66;20.42;97847.88;5049467;28;20045;-77
2022/05/28 03:09:11;;;;;;;0.52;0.50;;;;;;;27.14;21.48;97852.28;5049554;28;20036;-77
2022/05/28 03:11:38;;;;;;;1.90;0.70;;;;;;;27.14;21.95;97860.72;5048578;28;20496;-76
2022/05/28 03:14:05;;;;;;;0.73;0.40;;;;;;;27.55;21.57;97859.59;5049786;28;20591;-76
2022/05/28 03:16:31;;;;;;;0.50;0.50;;;;;;;27.69;21.18;97853.38;5048815;28;20480;-76
2022/05/28 03:18:57;;;;;;;0.50;0.50;;;;;;;27.86;21.12;97857.53;5047454;28;20040;-76
2022/05/28 03:21:23;;;;;;;1.05;0.73;;;;;;;27.95;20.76;97860.38;5049178;28;20064;-76
2022/05/28 03:23:50;;;;;;;1.00;0.60;;;;;;;28.25;20.75;97857.97;5045590;28;20044;-77
2022/05/28 03:26:27;;;;;;;0.73;0.50;;;;;;;28.29;20.40;97864.22;5049443;28;20025;-76
2022/05/28 03:28:56;;;;;;;1.83;0.80;;;;;;;28.43;20.03;97861.59;5049736;28;20424;-76
2022/05/28 03:31:24;;;;;;;0.85;0.50;;;;;;;28.40;20.20;97862.53;5045275;28;20083;-76
2022/05/28 03:33:50;;;;;;;0.95;0.60;;;;;;;28.52;20.23;97864.41;5051351;28;20026;-76
2022/05/28 03:36:17;;;;;;;1.83;0.75;;;;;;;28.58;20.26;97864.59;5051300;28;20025;-76
2022/05/28 03:38:43;;;;;;;1.35;0.73;;;;;;;28.74;20.00;97865.09;5048659;28;20041;-76
2022/05/28 03:41:10;;;;;;;1.30;0.60;;;;;;;28.80;19.88;97862.41;5048781;28;20504;-77
2022/05/28 03:43:37;;;;;;;1.30;0.40;;;;;;;28.45;20.88;97859.09;5050174;28;20041;-76
2022/05/28 03:46:03;;;;;;;0.98;0.68;;;;;;;28.53;20.83;97865.22;5048098;28;20568;-76
2022/05/28 03:48:32;;;;;;;0.52;0.43;;;;;;;28.71;20.43;97865.25;5046581;28;20045;-77
2022/05/28 03:50:58;;;;;;;1.05;0.77;;;;;;;28.93;20.25;97867.91;5032068;28;20043;-76
2022/05/28 03:53:25;;;;;;;0.65;0.60;;;;;;;29.14;20.17;97873.41;5047365;28;20289;-76
2022/05/28 03:55:51;;;;;;;1.30;0.80;;;;;;;29.14;20.19;97859.25;5048841;28;20527;-76
2022/05/28 03:58:17;;;;;;;0.60;0.60;;;;;;;28.58;20.47;97864.59;5048898;28;20032;-76
2022/05/28 04:00:44;;;;;;;0.43;0.43;;;;;;;27.95;21.52;97874.50;5047990;28;20424;-77
2022/05/28 04:03:10;;;;;;;1.85;0.50;;;;;;;27.88;21.86;97869.13;5029681;28;20075;-77
2022/05/28 04:05:39;;;;;;;0.82;0.63;;;;;;;28.15;21.37;97876.91;5031251;28;20098;-76
2022/05/28 04:08:06;;;;;;;0.52;0.52;;;;;;;28.20;21.54;97867.03;5048559;28;20063;-77
2022/05/28 04:10:32;;;;;;;0.52;0.52;;;;;;;28.63;21.11;97867.63;5050415;28;20037;-77
2022/05/28 04:12:58;;;;;;;0.80;0.60;;;;;;;28.80;20.78;97859.59;5049323;28;20086;-76
2022/05/28 04:15:27;;;;;;;0.63;0.57;;;;;;;29.08;21.58;97855.47;5046728;28;20112;-77
2022/05/28 04:17:53;;;;;;;0.60;0.60;;;;;;;29.66;22.23;97843.91;5047259;28;20425;-77
2022/05/28 04:20:19;;;;;;;3.03;0.70;;;;;;;29.90;22.53;97843.94;5048887;28;20086;-76
2022/05/28 04:22:45;;;;;;;2.05;0.65;;;;;;;29.87;22.95;97844.94;5050531;28;20041;-77
2022/05/28 04:25:11;;;;;;;2.15;0.70;;;;;;;29.99;23.16;97844.69;5051933;28;20037;-77
2022/05/28 04:27:40;;;;;;;1.63;0.60;;;;;;;30.03;23.27;97838.88;5051415;28;20028;-77
2022/05/28 04:30:07;;;;;;;0.70;0.70;;;;;;;30.31;23.61;97840.25;5049303;28;20029;-77
2022/05/28 04:32:33;;;;;;;1.38;0.75;;;;;;;30.67;23.27;97845.69;5044282;28;20044;-77
2022/05/28 04:34:59;;;;;;;0.82;0.80;;;;;;;30.99;22.23;97846.06;5042501;28;20392;-77
2022/05/28 04:37:25;;;;;;;0.98;0.60;;;;;;;31.35;23.64;97837.16;5046181;28;20419;-77
2022/05/28 04:39:51;;;;;;;1.02;0.60;;;;;;;31.92;22.73;97843.31;5046065;28;20100;-77
2022/05/28 04:42:17;;;;;;;1.25;0.90;;;;;;;32.27;22.49;97840.47;5046223;28;20029;-77
2022/05/28 04:44:43;;;;;;;1.08;0.73;;;;;;;32.10;21.21;97845.91;5044098;28;22060;-77
2022/05/28 04:47:09;;;;;;;1.25;0.52;;;;;;;32.24;22.10;97845.09;5041742;28;20036;-78
2022/05/28 04:49:35;;;;;;;1.90;0.50;;;;;;;32.44;20.54;97835.81;5045485;28;20048;-78
2022/05/28 04:52:01;;;;;;;1.40;0.63;;;;;;;32.67;22.28;97841.28;5046665;28;20033;-77
2022/05/28 04:54:27;;;;;;;0.52;0.50;;;;;;;33.02;21.09;97848.94;5044883;28;20033;-78
2022/05/28 04:56:53;;;;;;;0.77;0.50;;;;;;;33.29;20.81;97837.84;5047168;28;20063;-76
2022/05/28 04:59:19;;;;;;;1.23;0.40;;;;;;;33.56;20.49;97852.88;5050058;28;20033;-76
2022/05/28 05:01:45;;;;;;;1.85;0.40;;;;;;;33.75;21.10;97849.13;5049624;28;20052;-75
2022/05/28 05:04:12;;;;;;;0.40;0.40;;;;;;;33.92;20.26;97841.50;5045391;28;20118;-76
2022/05/28 05:06:38;;;;;;;0.52;0.30;;;;;;;34.03;20.76;97843.66;5030290;28;20032;-76
2022/05/28 05:09:13;;;;;;;1.45;0.45;;;;;;;34.03;20.42;97853.00;5046745;28;20040;-76
2022/05/28 05:11:39;;;;;;;0.40;0.40;;;;;;;34.08;20.42;97842.91;5050486;28;20017;-76
2022/05/28 05:14:05;;;;;;;0.30;0.30;;;;;;;34.21;21.01;97848.97;5047366;28;20051;-76
2022/05/28 05:16:31;;;;;;;0.43;0.40;;;;;;;34.38;20.64;97861.22;5048201;28;20029;-75
2022/05/28 05:18:57;;;;;;;1.33;0.52;;;;;;;34.20;19.19;97858.81;5051784;28;20473;-76
2022/05/28 05:21:23;;;;;;;1.52;0.55;;;;;;;33.60;18.84;97864.81;5050223;28;20453;-76
2022/05/28 05:23:49;;;;;;;1.35;0.40;;;;;;;32.87;20.52;97857.53;5047333;28;20060;-76
2022/05/28 05:26:19;;;;;;;0.40;0.40;;;;;;;32.68;21.57;97871.28;5048393;28;20051;-76
2022/05/28 05:28:45;;;;;;;1.05;0.52;;;;;;;32.41;20.21;97859.53;5026745;28;20400;-76
2022/05/28 05:31:13;;;;;;;1.25;0.47;;;;;;;32.70;21.25;97865.09;5046248;28;20037;-76
2022/05/28 05:33:39;;;;;;;0.60;0.50;;;;;;;32.02;20.62;97873.94;5049528;28;20091;-77
2022/05/28 05:36:06;;;;;;;1.02;0.60;;;;;;;31.87;19.58;97858.19;5052079;28;20095;-76
2022/05/28 05:38:32;;;;;;;0.93;0.40;;;;;;;31.47;20.80;97856.00;5043530;28;20029;-76
2022/05/28 05:40:58;;;;;;;0.57;0.30;;;;;;;32.06;22.02;97866.03;5052120;28;20061;-76
2022/05/28 05:43:25;;;;;;;1.20;0.50;;;;;;;32.34;20.43;97863.56;5028078;28;20080;-76
2022/05/28 05:45:56;;;;;;;2.00;0.50;;;;;;;31.46;20.82;97860.09;5044178;28;20048;-76
2022/05/28 05:48:23;;;;;;;2.50;0.50;;;;;;;31.33;21.14;97862.41;5031331;28;20131;-76
2022/05/28 05:50:50;;;;;;;1.05;0.60;;;;;;;31.03;21.16;97863.66;5050723;28;20112;-76
2022/05/28 05:53:16;;;;;;;0.63;0.50;;;;;;;30.81;20.53;97860.38;5045188;28;20033;-76
2022/05/28 05:55:43;;;;;;;2.40;0.52;;;;;;;31.19;20.77;97860.34;5044514;28;20104;-76
2022/05/28 05:58:10;;;;;;;0.47;0.40;;;;;;;31.00;20.61;97861.81;5045924;28;20032;-76
2022/05/28 06:00:36;;;;;;;1.75;0.50;;;;;;;30.00;21.47;97856.81;5046256;28;20056;-76
2022/05/28 06:03:03;;;;;;;3.13;0.50;;;;;;;30.34;21.68;97855.53;5042248;28;20496;-76
2022/05/28 06:05:29;;;;;;;2.20;0.73;;;;;;;30.82;20.52;97850.59;5028215;28;20029;-78
2022/05/28 06:07:55;;;;;;;1.73;0.55;;;;;;;30.23;22.13;97856.03;5048313;28;20041;-78
2022/05/28 06:10:21;;;;;;;2.83;0.55;;;;;;;29.28;20.97;97857.84;5049400;28;20383;-77
2022/05/28 06:12:47;;;;;;;2.05;0.57;;;;;;;29.88;21.39;97861.44;5047423;28;20102;-77
2022/05/28 06:15:13;;;;;;;1.27;0.50;;;;;;;29.34;22.75;97876.53;5044852;28;20036;-76
2022/05/28 06:17:40;;;;;;;1.23;0.60;;;;;;;28.76;22.90;97870.28;5048921;28;20396;-76
2022/05/28 06:20:09;;;;;;;1.88;0.50;;;;;;;28.22;22.54;97864.53;5032561;28;20048;-77
2022/05/28 06:22:36;;;;;;;3.65;0.93;;;;;;;27.51;22.88;97863.78;5050541;28;20041;-77
2022/05/28 06:25:03;;;;;;;4.57;1.75;;;;;;;27.11;23.70;97838.34;5047502;28;20033;-78
2022/05/28 06:27:31;;;;;;;2.80;0.80;;;;;;;26.83;23.57;97859.91;5043025;28;20503;-76
2022/05/28 06:29:57;;;;;;;4.90;1.88;;;;;;;26.74;22.67;97866.22;5044556;28;20037;-76
2022/05/28 06:32:23;;;;;;;2.45;0.75;;;;;;;27.15;23.19;97859.50;5046174;28;20041;-76
2022/05/28 06:34:49;;;;;;;4.70;1.02;;;;;;;27.67;22.13;97858.72;5047202;28;20048;-76
2022/05/28 06:37:15;;;;;;;1.90;0.80;;;;;;;28.87;21.87;97862.09;5045819;28;20037;-77
2022/05/28 06:39:42;;;;;;;1.60;0.60;;;;;;;29.27;20.83;97850.59;5050371;28;20040;-77
2022/05/28 06:42:08;;;;;;;4.03;0.77;;;;;;;29.76;20.10;97858.81;5047682;28;20032;-77
2022/05/28 06:44:35;;;;;;;4.78;0.70;;;;;;;29.89;20.71;97862.22;5044601;28;20431;-76
2022/05/28 06:47:03;;;;;;;4.25;0.70;;;;;;;28.10;21.44;97863.41;5045944;28;20154;-77
2022/05/28 06:49:30;;;;;;;6.72;1.65;;;;;;;27.89;21.10;97862.22;5049607;28;20389;-76
2022/05/28 06:51:56;;;;;;;3.25;0.98;;;;;;;28.12;21.54;97862.97;5049432;28;20037;-76
2022/05/28 06:54:22;;;;;;;3.60;0.70;;;;;;;28.68;20.69;97863.38;5027491;28;20032;-76
2022/05/28 06:56:48;;;;;;;2.97;0.60;;;;;;;29.04;20.84;97854.88;5032607;28;20047;-76
2022/05/28 06:59:14;;;;;;;5.60;0.70;;;;;;;28.37;21.39;97851.41;5050833;28;20384;-76
2022/05/28 07:01:40;;;;;;;1.73;0.70;;;;;;;28.60;20.63;97853.63;5042874;28;20033;-76
2022/05/28 07:04:06;;;;;;;3.83;1.00;;;;;;;27.94;21.60;97850.31;5044979;28;20051;-76
2022/05/28 07:06:34;;;;;;;2.38;0.60;;;;;;;27.06;22.98;97850.97;5027192;28;20036;-75
2022/05/28 07:09:00;;;;;;;4.15;1.00;;;;;;;27.69;21.68;97853.38;5042933;28;20048;-75
2022/05/28 07:11:26;;;;;;;4.35;0.98;;;;;;;27.53;21.07;97845.16;5043980;28;20037;-76
2022/05/28 07:13:52;;;;;;;1.27;0.70;;;;;;;28.30;21.36;97849.66;5036244;28;20400;-76
2022/05/28 07:16:19;;;;;;;2.17;0.70;;;;;;;27.76;20.95;97844.63;5040367;28;20033;-75
2022/05/28 07:18:45;;;;;;;4.93;0.60;;;;;;;27.95;21.00;97840.63;5024253;28;20477;-76
2022/05/28 07:21:12;;;;;;;5.07;0.98;;;;;;;26.71;21.82;97838.97;5039358;28;20109;-76
2022/05/28 07:23:38;;;;;;;4.47;0.60;;;;;;;27.25;21.69;97841.41;5024577;28;20483;-77
2022/05/28 07:26:11;;;;;;;7.57;1.30;;;;;;;26.77;22.52;97835.59;5043346;28;20108;-76
2022/05/28 07:28:39;;;;;;;2.80;0.80;;;;;;;26.93;22.00;97833.38;5040795;28;20040;-76
2022/05/28 07:31:11;;;;;;;5.25;0.80;;;;;;;27.42;21.37;97838.38;5025365;28;20102;-76
2022/05/28 07:33:40;;;;;;;4.15;1.38;;;;;;;28.61;20.57;97821.31;5041182;28;20052;-78
2022/05/28 07:36:08;;;;;;;2.17;0.55;;;;;;;28.63;20.70;97836.53;5047418;28;20033;-78
2022/05/28 07:38:36;;;;;;;4.10;0.60;;;;;;;27.72;20.96;97823.47;5044847;28;20511;-78
2022/05/28 07:41:07;;;;;;;4.18;0.82;;;;;;;26.87;22.90;97823.13;5042033;28;20392;-79
2022/05/28 07:43:35;;;;;;;2.15;0.80;;;;;;;27.59;21.60;97823.56;5042690;28;20039;-78
2022/05/28 07:46:02;;;;;;;2.58;0.85;;;;;;;26.89;22.84;97817.81;5046798;28;20396;-77
2022/05/28 07:48:29;;;;;;;4.03;0.88;;;;;;;27.42;21.63;97825.06;5044424;28;20049;-77
2022/05/28 07:50:55;;;;;;;5.78;0.75;;;;;;;27.27;21.11;97824.00;5040921;28;20105;-76
2022/05/28 07:53:21;;;;;;;4.13;0.73;;;;;;;27.24;21.41;97817.25;5046735;28;20573;-77
2022/05/28 07:55:47;;;;;;;4.68;0.70;;;;;;;27.81;21.97;97826.31;5040178;28;20484;-77
2022/05/28 07:58:20;;;;;;;1.70;0.63;;;;;;;27.98;21.44;97814.28;5047099;28;20043;-76
2022/05/28 08:00:48;;;;;;;2.72;0.55;;;;;;;28.25;20.52;97826.91;5044959;28;20063;-77
2022/05/28 08:03:18;;;;;;;2.08;0.60;;;;;;;28.55;20.21;97820.31;5028808;28;20098;-77
2022/05/28 08:05:48;;;;;;;1.58;0.50;;;;;;;26.90;22.04;97822.22;5045425;28;20562;-76
2022/05/28 08:08:15;;;;;;;4.95;0.60;;;;;;;28.26;20.42;97820.00;5048100;28;20121;-76
2022/05/28 08:10:42;;;;;;;1.23;0.50;;;;;;;28.28;19.83;97812.66;5025351;28;20045;-76
2022/05/28 08:13:11;;;;;;;1.42;0.65;;;;;;;27.54;19.98;97812.13;5046104;28;20033;-75
2022/05/28 08:15:40;;;;;;;4.30;0.85;;;;;;;27.32;20.78;97809.31;5044190;28;20072;-75
2022/05/28 08:18:07;;;;;;;1.98;0.52;;;;;;;28.37;20.40;97814.69;5045000;28;20104;-76
2022/05/28 08:23:19;;;;;;;0.82;0.40;;;;;;;26.15;21.91;97807.19;5045356;28;20132;-75
2022/05/28 08:25:46;;;;;;;2.17;0.50;;;;;;;27.19;20.40;97812.22;5041154;28;20034;-76
2022/05/28 08:28:14;;;;;;;1.20;0.35;;;;;;;28.41;20.10;97812.47;5047554;28;20033;-76
2022/05/28 08:30:40;;;;;;;1.55;0.65;;;;;;;28.29;19.56;97810.59;5044129;28;20037;-76
2022/05/28 08:33:15;;;;;;;1.90;0.30;;;;;;;29.09;19.17;97809.00;5045156;28;20035;-76
2022/05/28 08:35:42;;;;;;;2.47;0.60;;;;;;;29.13;18.34;97811.66;5043756;28;20072;-75
2022/05/28 08:38:15;;;;;;;1.50;0.50;;;;;;;29.41;18.19;97799.81;5045415;28;20047;-75
2022/05/28 08:40:50;;;;;;;1.85;0.60;;;;;;;29.08;18.26;97781.97;5042130;28;20106;-75
2022/05/28 08:43:18;;;;;;;1.70;0.50;;;;;;;28.72;19.48;97813.94;5043602;28;20041;-75
2022/05/28 08:45:47;;;;;;;1.67;0.50;;;;;;;29.21;18.47;97804.44;5044941;28;20048;-75
2022/05/28 08:48:20;;;;;;;1.40;0.50;;;;;;;28.44;19.24;97809.50;5047388;28;20043;-75
2022/05/28 08:51:01;;;;;;;1.63;0.50;;;;;;;29.02;18.21;97800.06;5046814;28;20522;-75
2022/05/28 08:53:35;;;;;;;1.55;0.38;;;;;;;29.35;17.71;97810.22;5043971;28;20111;-76
2022/05/28 08:56:03;;;;;;;2.33;0.45;;;;;;;29.45;17.96;97807.34;5045938;28;20041;-75
2022/05/28 08:58:32;;;;;;;3.67;0.50;;;;;;;29.10;18.15;97804.91;5043608;28;20112;-76
2022/05/28 09:01:06;;;;;;;0.98;0.40;;;;;;;29.29;17.84;97811.34;5043652;28;20025;-75
2022/05/28 09:03:58;;;;;;;2.58;0.60;;;;;;;28.81;17.59;97807.47;5043761;28;20111;-75
2022/05/28 09:06:43;;;;;;;1.70;0.50;;;;;;;28.25;19.88;97815.59;5043199;28;20032;-75
2022/05/28 09:09:13;;;;;;;1.65;0.50;;;;;;;28.08;20.08;97812.28;5043983;28;20029;-75
2022/05/28 09:11:43;;;;;;;1.40;0.30;;;;;;;29.08;19.10;97815.13;5043686;28;20059;-76
2022/05/28 09:14:18;;;;;;;1.60;0.40;;;;;;;29.19;19.10;97804.94;5038829;28;20041;-75
2022/05/28 09:16:47;;;;;;;2.88;0.32;;;;;;;28.75;19.40;97798.84;5042066;28;20041;-75
2022/05/28 09:19:24;;;;;;;2.70;0.50;;;;;;;29.43;20.26;97791.63;5040372;28;20501;-77
2022/05/28 09:21:50;;;;;;;3.22;0.60;;;;;;;30.38;18.38;97790.97;5024087;28;20032;-76
2022/05/28 09:24:22;;;;;;;2.58;0.55;;;;;;;29.93;19.66;97783.56;5044033;28;20680;-76
2022/05/28 09:27:03;;;;;;;1.02;0.50;;;;;;;29.27;18.77;97800.50;5044343;28;20056;-77
2022/05/28 09:29:48;;;;;;;0.70;0.50;;;;;;;29.71;19.38;97785.88;5020851;28;20061;-76
2022/05/28 09:32:28;;;;;;;1.15;0.60;;;;;;;29.99;18.17;97793.72;5039506;28;20083;-77
2022/05/28 09:35:09;;;;;;;2.22;0.45;;;;;;;30.22;17.10;97782.88;5046263;28;20504;-76
2022/05/28 09:37:52;;;;;;;1.33;0.40;;;;;;;31.07;16.35;97785.63;5047341;28;20021;-77
2022/05/28 09:40:49;;;;;;;1.45;0.63;;;;;;;31.29;17.55;97779.56;5047562;28;20481;-77
2022/05/28 09:43:43;;;;;;;2.35;0.57;;;;;;;30.33;17.92;97781.09;5048864;28;20029;-76
2022/05/28 09:46:21;;;;;;;1.73;0.70;;;;;;;29.90;18.88;97778.84;5051351;28;20032;-77
2022/05/28 09:49:17;;;;;;;1.95;0.45;;;;;;;28.95;19.44;97778.56;5049601;28;20076;-76
2022/05/28 09:52:07;;;;;;;3.25;0.70;;;;;;;28.05;20.58;97782.94;5048099;28;20446;-77
2022/05/28 09:54:34;;;;;;;3.88;0.75;;;;;;;28.50;18.93;97767.28;5049282;28;20026;-77
2022/05/28 09:57:10;;;;;;;2.33;0.50;;;;;;;28.80;20.00;97771.97;5049953;28;20565;-77
2022/05/28 09:59:55;;;;;;;1.52;0.47;;;;;;;28.86;19.80;97766.50;5049677;28;20091;-77
2022/05/28 10:02:43;;;;;;;4.03;0.60;;;;;;;29.18;19.40;97766.59;5049713;28;20025;-77
2022/05/28 10:05:16;;;;;;;1.33;0.60;;;;;;;29.42;18.40;97767.44;5050851;28;20060;-78
2022/05/28 10:07:48;;;;;;;2.00;0.50;;;;;;;29.01;19.17;97756.88;5049602;28;20021;-77
2022/05/28 10:10:30;;;;;;;1.75;0.50;;;;;;;29.18;18.09;97766.59;5050349;28;20033;-77
2022/05/28 10:13:14;;;;;;;1.73;0.50;;;;;;;30.20;17.68;97748.59;5053113;28;20067;-77
2022/05/28 10:15:56;;;;;;;4.68;1.15;;;;;;;31.59;17.13;97749.88;5055616;28;20032;-78
2022/05/28 10:18:53;;;;;;;1.98;0.30;;;;;;;32.94;15.29;97731.16;5039619;28;20385;-78
2022/05/28 10:21:29;;;;;;;1.17;0.40;;;;;;;32.59;15.32;97737.81;5039678;28;20052;-77
2022/05/28 10:24:00;;;;;;;1.10;0.38;;;;;;;31.98;15.93;97748.41;5050439;28;20542;-77
2022/05/28 10:26:50;;;;;;;2.60;0.65;;;;;;;30.31;17.08;97752.44;5034868;28;20489;-77
2022/05/28 10:29:28;;;;;;;2.97;0.60;;;;;;;28.28;18.11;97738.44;5048392;28;20071;-77
2022/05/28 10:31:57;;;;;;;1.08;0.40;;;;;;;29.05;18.20;97743.38;5054558;28;20025;-77
2022/05/28 10:34:34;;;;;;;2.13;0.40;;;;;;;29.25;18.00;97745.66;5049136;28;20037;-77
2022/05/28 10:37:19;;;;;;;3.05;0.40;;;;;;;30.00;17.23;97747.16;5049086;28;20021;-76
2022/05/28 10:39:47;;;;;;;2.05;0.40;;;;;;;29.81;17.29;97734.41;5048857;28;20421;-76
2022/05/28 10:42:16;;;;;;;3.33;0.50;;;;;;;28.91;18.22;97746.84;5049203;28;20102;-76
2022/05/28 10:44:43;;;;;;;1.23;0.40;;;;;;;28.54;18.15;97737.63;5048845;28;20059;-77
2022/05/28 10:47:24;;;;;;;0.82;0.30;;;;;;;29.02;17.69;97733.00;5049313;28;20040;-78
2022/05/28 10:50:33;;;;;;;1.30;0.50;;;;;;;29.65;16.97;97734.78;5048008;28;20062;-77
2022/05/28 10:53:19;;;;;;;1.38;0.43;;;;;;;29.38;18.21;97737.78;5049056;28;20041;-77
2022/05/28 10:56:13;;;;;;;3.55;0.50;;;;;;;29.45;16.94;97731.75;5044030;28;20029;-76
2022/05/28 10:59:05;;;;;;;2.00;0.50;;;;;;;29.34;17.36;97735.09;5046208;28;20492;-76
2022/05/28 11:01:45;;;;;;;0.85;0.30;;;;;;;30.01;16.50;97731.72;5044892;28;20099;-76
2022/05/28 11:04:48;;;;;;;0.70;0.35;;;;;;;29.84;16.33;97741.16;5041928;28;20396;-75
2022/05/28 11:07:23;;;;;;;1.20;0.40;;;;;;;29.05;17.67;97754.69;5047479;28;20108;-76
2022/05/28 11:10:01;;;;;;;1.80;0.60;;;;;;;29.47;17.17;97748.25;5046882;28;20179;-76
2022/05/28 11:12:44;;;;;;;2.55;0.50;;;;;;;28.87;17.22;97776.56;5041344;28;20116;-77
2022/05/28 11:15:28;;;;;;;1.40;0.43;;;;;;;28.21;17.95;97801.66;5048075;28;20030;-76
2022/05/28 11:18:25;;;;;;;4.15;0.40;;;;;;;28.34;18.15;97802.28;5045580;28;20504;-79
2022/05/28 11:20:59;;;;;;;0.30;0.20;;;;;;;28.08;18.08;97818.72;5044408;28;20135;-77
2022/05/28 11:23:37;;;;;;;3.00;0.38;;;;;;;27.53;19.48;97816.97;5041087;28;20047;-77
2022/05/28 11:26:26;;;;;;;1.00;0.40;;;;;;;27.19;20.60;97846.03;5049213;28;20059;-77
2022/05/28 11:29:26;;;;;;;2.10;0.50;;;;;;;26.52;21.74;97831.63;5048230;28;20052;-77
2022/05/28 11:32:03;;;;;;;1.45;0.40;;;;;;;27.08;21.65;97844.88;5015608;28;20041;-77
2022/05/28 11:34:51;;;;;;;1.75;0.30;;;;;;;26.63;22.37;97851.72;5046122;28;20044;-78
2022/05/28 11:37:52;;;;;;;1.23;0.32;;;;;;;26.64;22.67;97850.50;5045069;28;20029;-78
2022/05/28 11:40:34;;;;;;;3.85;0.45;;;;;;;26.57;22.50;97825.41;5046138;28;20025;-77
2022/05/28 11:43:19;;;;;;;1.52;0.20;;;;;;;26.86;22.56;97816.75;5045055;28;20078;-76
2022/05/28 11:46:08;;;;;;;0.50;0.20;;;;;;;27.25;22.74;97816.03;5042804;28;20090;-76
2022/05/28 11:51:37;;;;;;;0.93;0.20;;;;;;;27.82;21.93;97817.38;5043591;28;20489;-77
2022/05/28 11:54:10;;;;;;;0.52;0.20;;;;;;;28.98;21.49;97807.94;5040429;28;20501;-76
2022/05/28 11:56:36;;;;;;;0.52;0.30;;;;;;;30.13;21.46;97805.63;5041519;28;20037;-75
2022/05/28 11:59:13;;;;;;;2.40;0.30;;;;;;;30.68;19.58;97799.06;5042431;28;20048;-75
2022/05/28 12:01:47;;;;;;;0.25;0.20;;;;;;;30.26;19.89;97800.47;5035389;28;20033;-75
2022/05/28 12:04:13;;;;;;;0.40;0.20;;;;;;;30.27;19.06;97793.56;5043498;28;20033;-76